Time;durP1;ratioP1;P1;durP2;ratioP2;P2;SDS_P1;SDS_P2;PMS_P1;PMS_P2;Temp;Humidity;BMP_temperature;BMP_pressure;BME280_temperature;BME280_humidity;BME280_pressure;Samples;Min_cycle;Max_cycle;Signal;HPM_P1;HPM_P2
2022/03/04 00:02:01;;;;;;;11.30;5.10;;;;;;;;;;1701487;83;21024;-68
2022/03/04 00:04:28;;;;;;;11.53;5.35;;;;;;;;;;1732520;81;21090;-69
2022/03/04 00:06:54;;;;;;;10.68;5.50;;;;;;;;;;1756761;80;21079;-69
2022/03/04 00:09:20;;;;;;;11.80;4.78;;;;;;;;;;1737358;81;21057;-69
2022/03/04 00:11:47;;;;;;;10.18;5.17;;;;;;;;;;1733677;81;21024;-69
2022/03/04 00:14:13;;;;;;;9.30;5.40;;;;;;;;;;1758999;81;21406;-69
2022/03/04 00:16:40;;;;;;;9.40;5.22;;;;;;;;;;1729663;81;21100;-69
2022/03/04 00:19:07;;;;;;;11.85;5.87;;;;;;;;;;1711846;83;21120;-69
2022/03/04 00:21:36;;;;;;;10.28;5.33;;;;;;;;;;1724930;81;20982;-68
2022/03/04 00:24:03;;;;;;;6.50;3.77;;;;;;;;;;1720652;82;21020;-69
2022/03/04 00:26:30;;;;;;;5.78;3.55;;;;;;;;;;1709875;81;21064;-68
2022/03/04 00:28:56;;;;;;;6.42;3.95;;;;;;;;;;1714349;81;21036;-68
2022/03/04 00:31:23;;;;;;;9.40;4.58;;;;;;;;;;1729042;81;21012;-68
2022/03/04 00:33:50;;;;;;;8.98;4.92;;;;;;;;;;1748161;81;21052;-68
2022/03/04 00:36:16;;;;;;;6.60;3.90;;;;;;;;;;1724467;83;21120;-66
2022/03/04 00:38:42;;;;;;;4.28;3.10;;;;;;;;;;1725268;81;21010;-67
2022/03/04 00:41:09;;;;;;;7.00;3.35;;;;;;;;;;1719678;81;21021;-68
2022/03/04 00:43:35;;;;;;;6.45;3.70;;;;;;;;;;1706574;82;21115;-68
2022/03/04 00:46:01;;;;;;;6.45;3.37;;;;;;;;;;1721711;82;21012;-68
2022/03/04 00:48:27;;;;;;;6.50;3.77;;;;;;;;;;1705415;83;21111;-67
2022/03/04 00:50:54;;;;;;;6.28;3.58;;;;;;;;;;1743632;81;21105;-67
2022/03/04 00:53:20;;;;;;;6.28;3.35;;;;;;;;;;1737733;81;21593;-67
2022/03/04 00:55:47;;;;;;;6.30;4.05;;;;;;;;;;1719169;83;21046;-67
2022/03/04 00:58:13;;;;;;;7.55;4.33;;;;;;;;;;1729781;83;21103;-68
2022/03/04 01:00:39;;;;;;;7.08;4.15;;;;;;;;;;1721166;81;21020;-68
2022/03/04 01:03:06;;;;;;;6.33;4.17;;;;;;;;;;1702565;83;21627;-68
2022/03/04 01:05:32;;;;;;;8.68;4.37;;;;;;;;;;1736919;81;21011;-69
2022/03/04 01:07:58;;;;;;;8.10;4.03;;;;;;;;;;1744010;82;21060;-68
2022/03/04 01:10:25;;;;;;;8.43;3.98;;;;;;;;;;1745161;81;21032;-69
2022/03/04 01:12:51;;;;;;;7.55;4.50;;;;;;;;;;1745818;81;21007;-69
2022/03/04 01:15:17;;;;;;;7.80;3.80;;;;;;;;;;1753787;81;20975;-70
2022/03/04 01:17:44;;;;;;;6.50;3.95;;;;;;;;;;1761682;81;21538;-70
2022/03/04 01:20:10;;;;;;;8.68;4.70;;;;;;;;;;1754035;81;21287;-70
2022/03/04 01:22:36;;;;;;;9.73;4.90;;;;;;;;;;1708751;83;20965;-70
2022/03/04 01:25:03;;;;;;;7.60;3.98;;;;;;;;;;1729530;83;21537;-69
2022/03/04 01:27:29;;;;;;;7.22;4.35;;;;;;;;;;1728938;83;21574;-70
2022/03/04 01:29:55;;;;;;;8.40;4.55;;;;;;;;;;1727642;83;21095;-70
2022/03/04 01:32:21;;;;;;;7.30;4.28;;;;;;;;;;1725858;83;21559;-69
2022/03/04 01:34:48;;;;;;;6.10;4.00;;;;;;;;;;1727346;83;21020;-69
2022/03/04 01:37:14;;;;;;;6.97;3.70;;;;;;;;;;1727663;82;21037;-70
2022/03/04 01:39:40;;;;;;;4.95;3.47;;;;;;;;;;1727976;82;21508;-69
2022/03/04 01:42:08;;;;;;;5.47;3.42;;;;;;;;;;1725757;83;21085;-70
2022/03/04 01:44:35;;;;;;;6.80;3.85;;;;;;;;;;1695512;83;21017;-70
2022/03/04 01:47:01;;;;;;;5.65;3.58;;;;;;;;;;1727243;83;21028;-70
2022/03/04 01:49:27;;;;;;;6.83;3.70;;;;;;;;;;1701667;83;21040;-70
2022/03/04 01:51:53;;;;;;;8.75;4.72;;;;;;;;;;1729714;83;21601;-71
2022/03/04 01:54:20;;;;;;;8.00;4.62;;;;;;;;;;1728613;82;21052;-72
2022/03/04 01:56:46;;;;;;;6.85;4.37;;;;;;;;;;1729937;83;21093;-71
2022/03/04 01:59:12;;;;;;;6.05;3.65;;;;;;;;;;1729252;83;21064;-71
2022/03/04 02:04:29;;;;;;;7.33;4.47;;;;;;;;;;1702140;80;74713;-73
2022/03/04 02:06:55;;;;;;;6.20;3.67;;;;;;;;;;1697307;84;21623;-75
2022/03/04 02:09:22;;;;;;;8.80;4.80;;;;;;;;;;1697581;84;21022;-74
2022/03/04 02:11:48;;;;;;;9.78;4.72;;;;;;;;;;1697717;84;21536;-72
2022/03/04 02:14:15;;;;;;;9.90;5.28;;;;;;;;;;1675699;84;21135;-74
2022/03/04 02:16:44;;;;;;;7.28;4.53;;;;;;;;;;1697640;84;21541;-72
2022/03/04 02:19:11;;;;;;;6.45;4.40;;;;;;;;;;1697574;84;21066;-74
2022/03/04 02:21:40;;;;;;;11.60;5.85;;;;;;;;;;1697288;84;21665;-73
2022/03/04 02:24:06;;;;;;;9.20;4.47;;;;;;;;;;1697634;84;21518;-72
2022/03/04 02:26:33;;;;;;;8.78;4.90;;;;;;;;;;1697530;84;20998;-73
2022/03/04 02:28:59;;;;;;;7.60;4.35;;;;;;;;;;1697587;84;21546;-73
2022/03/04 02:31:25;;;;;;;8.18;4.12;;;;;;;;;;1697641;84;21864;-73
2022/03/04 02:33:51;;;;;;;8.93;4.20;;;;;;;;;;1675373;84;21057;-73
2022/03/04 02:36:19;;;;;;;6.28;3.80;;;;;;;;;;1697304;84;21198;-73
2022/03/04 02:38:45;;;;;;;8.10;4.65;;;;;;;;;;1697641;84;21106;-72
2022/03/04 02:41:11;;;;;;;7.90;4.25;;;;;;;;;;1675408;84;21038;-71
2022/03/04 02:43:39;;;;;;;7.92;4.62;;;;;;;;;;1697364;84;21101;-72
2022/03/04 02:46:07;;;;;;;7.05;4.35;;;;;;;;;;1697670;84;21242;-73
2022/03/04 02:48:34;;;;;;;7.67;4.55;;;;;;;;;;1697696;84;21549;-74
2022/03/04 02:51:00;;;;;;;10.40;4.95;;;;;;;;;;1675607;84;21050;-73
2022/03/04 02:53:27;;;;;;;10.10;4.53;;;;;;;;;;1697560;84;21038;-74
2022/03/04 02:55:53;;;;;;;9.48;5.08;;;;;;;;;;1697634;84;21026;-74
2022/03/04 02:58:20;;;;;;;7.65;4.00;;;;;;;;;;1697319;84;21074;-73
2022/03/04 03:00:47;;;;;;;6.95;3.20;;;;;;;;;;1675432;84;21050;-74
2022/03/04 03:03:13;;;;;;;10.28;4.42;;;;;;;;;;1706275;82;21168;-73
2022/03/04 03:05:40;;;;;;;7.50;4.10;;;;;;;;;;1694605;83;21076;-73
2022/03/04 03:08:06;;;;;;;8.33;4.50;;;;;;;;;;1704587;82;21076;-74
2022/03/04 03:10:33;;;;;;;7.15;4.08;;;;;;;;;;1670041;86;21105;-73
2022/03/04 03:13:00;;;;;;;7.47;4.15;;;;;;;;;;1731840;83;21128;-73
2022/03/04 03:15:27;;;;;;;6.87;3.77;;;;;;;;;;1732159;83;21005;-73
2022/03/04 03:17:53;;;;;;;9.68;4.30;;;;;;;;;;1719258;82;21040;-73
2022/03/04 03:20:19;;;;;;;9.00;4.85;;;;;;;;;;1732163;82;21572;-74
2022/03/04 03:22:45;;;;;;;8.23;4.80;;;;;;;;;;1732012;82;21004;-76
2022/03/04 03:25:12;;;;;;;7.33;3.77;;;;;;;;;;1732042;83;21615;-75
2022/03/04 03:27:39;;;;;;;7.47;3.67;;;;;;;;;;1714136;83;21127;-75
2022/03/04 03:30:05;;;;;;;5.50;3.72;;;;;;;;;;1670125;86;21077;-76
2022/03/04 03:32:33;;;;;;;5.78;3.40;;;;;;;;;;1700424;83;20997;-76
2022/03/04 03:34:59;;;;;;;6.75;3.55;;;;;;;;;;1715919;83;20993;-78
2022/03/04 03:37:26;;;;;;;6.83;3.85;;;;;;;;;;1702446;84;21606;-75
2022/03/04 03:39:54;;;;;;;7.67;4.05;;;;;;;;;;1691400;83;21017;-75
2022/03/04 03:42:20;;;;;;;8.55;4.35;;;;;;;;;;1722713;83;21044;-75
2022/03/04 03:44:46;;;;;;;8.75;4.17;;;;;;;;;;1715953;83;21150;-76
2022/03/04 03:47:13;;;;;;;5.00;3.72;;;;;;;;;;1670418;86;20999;-77
2022/03/04 03:49:40;;;;;;;10.10;5.03;;;;;;;;;;1698567;84;21096;-76
2022/03/04 03:52:07;;;;;;;7.05;4.08;;;;;;;;;;1694134;83;21091;-74
2022/03/04 03:54:34;;;;;;;9.03;5.17;;;;;;;;;;1645900;86;21053;-74
2022/03/04 03:57:01;;;;;;;8.68;4.72;;;;;;;;;;1699922;83;21068;-75
2022/03/04 03:59:27;;;;;;;12.88;5.87;;;;;;;;;;1700849;82;21012;-72
2022/03/04 04:01:53;;;;;;;10.93;6.03;;;;;;;;;;1731943;82;21500;-72
2022/03/04 04:04:19;;;;;;;10.10;5.60;;;;;;;;;;1730337;81;21171;-71
2022/03/04 04:06:46;;;;;;;13.48;7.47;;;;;;;;;;1723813;83;21016;-72
2022/03/04 04:09:12;;;;;;;13.60;7.80;;;;;;;;;;1727167;82;21176;-73
2022/03/04 04:11:38;;;;;;;10.48;6.00;;;;;;;;;;1706352;83;21068;-75
2022/03/04 04:14:05;;;;;;;12.70;7.25;;;;;;;;;;1711718;83;21044;-74
2022/03/04 04:16:31;;;;;;;15.78;7.78;;;;;;;;;;1724067;83;21013;-78
2022/03/04 04:18:58;;;;;;;15.25;8.83;;;;;;;;;;1723832;83;21104;-74
2022/03/04 04:21:24;;;;;;;15.10;9.80;;;;;;;;;;1726375;82;21052;-73
2022/03/04 04:23:52;;;;;;;15.68;9.03;;;;;;;;;;1731652;82;21559;-74
2022/03/04 04:26:19;;;;;;;15.83;9.00;;;;;;;;;;1717442;83;21084;-76
2022/03/04 04:28:45;;;;;;;13.95;8.63;;;;;;;;;;1694474;83;21056;-73
2022/03/04 04:31:11;;;;;;;12.40;7.87;;;;;;;;;;1701038;83;21152;-74
2022/03/04 04:33:38;;;;;;;11.50;6.92;;;;;;;;;;1724223;83;21080;-73
2022/03/04 04:36:04;;;;;;;14.70;7.62;;;;;;;;;;1691601;85;21133;-74
2022/03/04 04:38:30;;;;;;;15.55;8.25;;;;;;;;;;1669676;85;21131;-75
2022/03/04 04:40:58;;;;;;;14.80;7.92;;;;;;;;;;1668979;85;21043;-76
2022/03/04 04:43:24;;;;;;;17.17;8.75;;;;;;;;;;1629366;87;21061;-75
2022/03/04 04:45:53;;;;;;;18.12;10.03;;;;;;;;;;1696761;83;21017;-73
2022/03/04 04:48:19;;;;;;;15.55;8.38;;;;;;;;;;1709486;83;21021;-72
2022/03/04 04:50:45;;;;;;;16.37;9.13;;;;;;;;;;1727100;83;20966;-74
2022/03/04 04:53:11;;;;;;;15.35;8.68;;;;;;;;;;1723232;83;21056;-74
2022/03/04 04:55:39;;;;;;;11.12;5.95;;;;;;;;;;1721808;83;21128;-74
2022/03/04 04:58:05;;;;;;;13.28;6.95;;;;;;;;;;1723995;83;21008;-73
2022/03/04 05:00:31;;;;;;;14.45;6.50;;;;;;;;;;1714696;83;21113;-72
2022/03/04 05:02:58;;;;;;;14.28;8.05;;;;;;;;;;1719727;82;21199;-71
2022/03/04 05:05:24;;;;;;;12.03;6.60;;;;;;;;;;1721608;83;21038;-71
2022/03/04 05:07:51;;;;;;;11.57;7.42;;;;;;;;;;1705776;83;20949;-71
2022/03/04 05:10:17;;;;;;;10.15;6.67;;;;;;;;;;1711014;83;21119;-71
2022/03/04 05:12:43;;;;;;;14.78;8.60;;;;;;;;;;1715074;83;21440;-70
2022/03/04 05:15:10;;;;;;;15.80;8.75;;;;;;;;;;1721974;83;21633;-70
2022/03/04 05:17:36;;;;;;;16.10;8.10;;;;;;;;;;1722556;83;21528;-70
2022/03/04 05:20:03;;;;;;;14.20;7.90;;;;;;;;;;1694005;83;21140;-70
2022/03/04 05:22:30;;;;;;;12.95;6.67;;;;;;;;;;1722713;83;21076;-70
2022/03/04 05:24:56;;;;;;;15.05;8.40;;;;;;;;;;1722359;83;21684;-70
2022/03/04 05:27:22;;;;;;;14.85;7.58;;;;;;;;;;1722758;83;21033;-70
2022/03/04 05:29:48;;;;;;;14.53;6.37;;;;;;;;;;1722653;83;21560;-69
2022/03/04 05:32:15;;;;;;;11.75;6.33;;;;;;;;;;1722742;83;21080;-71
2022/03/04 05:34:41;;;;;;;11.08;6.22;;;;;;;;;;1722605;83;21694;-69
2022/03/04 05:37:08;;;;;;;10.13;5.47;;;;;;;;;;1722691;83;21100;-70
2022/03/04 05:39:34;;;;;;;11.40;5.70;;;;;;;;;;1722322;83;21112;-70
2022/03/04 05:42:02;;;;;;;9.53;5.28;;;;;;;;;;1716486;83;21032;-70
2022/03/04 05:44:30;;;;;;;7.78;4.42;;;;;;;;;;1722334;83;21076;-70
2022/03/04 05:46:57;;;;;;;9.80;5.47;;;;;;;;;;1722461;83;21583;-70
2022/03/04 05:49:23;;;;;;;8.40;4.45;;;;;;;;;;1722779;83;21352;-70
2022/03/04 05:51:50;;;;;;;13.85;6.28;;;;;;;;;;1722910;83;21084;-71
2022/03/04 05:54:17;;;;;;;10.85;4.65;;;;;;;;;;1722695;83;21100;-70
2022/03/04 05:56:43;;;;;;;7.62;4.92;;;;;;;;;;1716904;83;21024;-70
2022/03/04 05:59:09;;;;;;;9.13;4.75;;;;;;;;;;1722804;83;20996;-71
2022/03/04 06:01:36;;;;;;;12.65;6.90;;;;;;;;;;1716536;83;21623;-71
2022/03/04 06:04:02;;;;;;;9.15;5.58;;;;;;;;;;1722744;82;21140;-71
2022/03/04 06:06:28;;;;;;;9.03;5.35;;;;;;;;;;1723660;83;21028;-70
2022/03/04 06:08:55;;;;;;;7.83;5.00;;;;;;;;;;1724039;83;21099;-71
2022/03/04 06:11:21;;;;;;;8.75;5.15;;;;;;;;;;1724114;83;21531;-70
2022/03/04 06:13:47;;;;;;;12.20;5.55;;;;;;;;;;1724065;83;21158;-70
2022/03/04 06:16:14;;;;;;;10.03;5.28;;;;;;;;;;1712045;83;21115;-70
2022/03/04 06:18:40;;;;;;;8.55;5.22;;;;;;;;;;1724103;83;21053;-69
2022/03/04 06:21:06;;;;;;;12.03;6.20;;;;;;;;;;1724029;83;21037;-69
2022/03/04 06:23:32;;;;;;;11.08;6.53;;;;;;;;;;1724023;83;21053;-69
2022/03/04 06:25:59;;;;;;;10.50;5.87;;;;;;;;;;1724051;83;21092;-71
2022/03/04 06:28:25;;;;;;;10.43;6.87;;;;;;;;;;1723943;83;21089;-70
2022/03/04 06:30:52;;;;;;;10.13;5.22;;;;;;;;;;1723918;83;21020;-70
2022/03/04 06:33:32;;;;;;;11.12;6.20;;;;;;;;;;1723748;83;21041;-70
2022/03/04 06:35:59;;;;;;;7.37;5.00;;;;;;;;;;1724026;83;21524;-70
2022/03/04 06:38:26;;;;;;;10.32;6.05;;;;;;;;;;1723987;83;21347;-71
2022/03/04 06:40:52;;;;;;;12.78;7.17;;;;;;;;;;1723996;83;21056;-70
2022/03/04 06:43:19;;;;;;;12.25;6.87;;;;;;;;;;1723654;83;21084;-70
2022/03/04 06:45:45;;;;;;;13.08;6.97;;;;;;;;;;1723861;83;21524;-70
2022/03/04 06:48:12;;;;;;;13.08;7.25;;;;;;;;;;1723928;83;21032;-71
2022/03/04 06:50:39;;;;;;;14.18;6.55;;;;;;;;;;1723825;83;21036;-71
2022/03/04 06:53:05;;;;;;;10.20;6.28;;;;;;;;;;1723956;83;21032;-71
2022/03/04 06:55:31;;;;;;;11.20;5.50;;;;;;;;;;1723857;83;21020;-72
2022/03/04 06:57:58;;;;;;;16.12;9.40;;;;;;;;;;1723775;83;21068;-73
2022/03/04 07:00:25;;;;;;;21.10;11.78;;;;;;;;;;1723988;83;21056;-73
2022/03/04 07:02:52;;;;;;;25.45;14.13;;;;;;;;;;1723692;82;21056;-72
2022/03/04 07:05:21;;;;;;;28.50;18.73;;;;;;;;;;1723840;83;21045;-72
2022/03/04 07:07:46;;;;;;;32.98;20.17;;;;;;;;;;1723749;83;21032;-73
2022/03/04 07:10:13;;;;;;;30.02;17.15;;;;;;;;;;1723928;83;21025;-72
2022/03/04 07:12:40;;;;;;;29.52;16.90;;;;;;;;;;1723625;83;21128;-73
2022/03/04 07:15:07;;;;;;;30.52;16.25;;;;;;;;;;1724046;83;21532;-73
2022/03/04 07:17:34;;;;;;;42.48;16.32;;;;;;;;;;1723941;83;21104;-73
2022/03/04 07:20:01;;;;;;;49.45;24.75;;;;;;;;;;1723767;83;21100;-73
2022/03/04 07:22:27;;;;;;;36.33;16.42;;;;;;;;;;1724072;83;21009;-72
2022/03/04 07:24:53;;;;;;;29.72;17.80;;;;;;;;;;1723886;83;21134;-73
2022/03/04 07:27:20;;;;;;;20.30;12.03;;;;;;;;;;1724026;83;21041;-73
2022/03/04 07:29:46;;;;;;;20.65;13.22;;;;;;;;;;1723939;83;21580;-73
2022/03/04 07:32:15;;;;;;;19.70;12.23;;;;;;;;;;1724038;83;21024;-74
2022/03/04 07:34:42;;;;;;;25.88;15.95;;;;;;;;;;1723344;83;21052;-73
2022/03/04 07:37:09;;;;;;;18.23;11.25;;;;;;;;;;1724122;83;21541;-72
2022/03/04 07:39:35;;;;;;;11.33;6.17;;;;;;;;;;1723980;83;21009;-73
2022/03/04 07:42:02;;;;;;;13.28;7.75;;;;;;;;;;1723906;83;21067;-72
2022/03/04 07:44:28;;;;;;;8.03;5.08;;;;;;;;;;1723893;83;21140;-72
2022/03/04 07:46:55;;;;;;;9.08;5.65;;;;;;;;;;1724028;83;20985;-72
2022/03/04 07:49:22;;;;;;;11.18;7.33;;;;;;;;;;1723915;83;21096;-72
2022/03/04 07:51:48;;;;;;;12.82;7.65;;;;;;;;;;1723934;83;21599;-73
2022/03/04 07:54:18;;;;;;;15.38;7.95;;;;;;;;;;1724110;83;21076;-73
2022/03/04 07:56:44;;;;;;;8.65;5.37;;;;;;;;;;1723774;83;21033;-72
2022/03/04 07:59:10;;;;;;;11.60;6.08;;;;;;;;;;1724084;83;21073;-73
2022/03/04 08:01:36;;;;;;;11.25;5.75;;;;;;;;;;1723972;82;21033;-73
2022/03/04 08:04:05;;;;;;;10.95;6.28;;;;;;;;;;1723792;82;21590;-73
2022/03/04 08:06:32;;;;;;;10.00;6.00;;;;;;;;;;1722876;83;21092;-73
2022/03/04 08:10:33;;;;;;;9.00;4.42;;;;;;;;;;1801041;79;23589;-72
2022/03/04 08:12:59;;;;;;;8.00;4.75;;;;;;;;;;1761339;81;21056;-72
2022/03/04 08:15:26;;;;;;;8.23;5.50;;;;;;;;;;1761703;81;21107;-73
2022/03/04 08:17:52;;;;;;;8.85;5.22;;;;;;;;;;1761930;81;21032;-70
2022/03/04 08:20:21;;;;;;;10.00;6.70;;;;;;;;;;1761449;81;21084;-71
2022/03/04 08:22:49;;;;;;;9.75;6.12;;;;;;;;;;1761914;81;21025;-71
2022/03/04 08:25:15;;;;;;;9.30;6.08;;;;;;;;;;1761826;81;20993;-71
2022/03/04 08:27:42;;;;;;;7.40;4.72;;;;;;;;;;1761632;81;21016;-71
2022/03/04 08:30:10;;;;;;;7.25;4.20;;;;;;;;;;1761556;81;21559;-70
2022/03/04 08:32:36;;;;;;;9.83;6.08;;;;;;;;;;1761714;81;21059;-72
2022/03/04 08:35:03;;;;;;;12.13;5.60;;;;;;;;;;1761576;81;21552;-72
2022/03/04 08:37:31;;;;;;;7.35;5.05;;;;;;;;;;1761807;81;21552;-71
2022/03/04 08:39:57;;;;;;;11.15;6.05;;;;;;;;;;1761650;81;21563;-70
2022/03/04 08:42:25;;;;;;;12.47;6.72;;;;;;;;;;1761642;81;21075;-72
2022/03/04 08:44:55;;;;;;;11.25;7.00;;;;;;;;;;1761667;81;21008;-71
2022/03/04 08:47:21;;;;;;;10.70;5.92;;;;;;;;;;1761833;81;21005;-72
2022/03/04 08:49:47;;;;;;;13.70;7.17;;;;;;;;;;1761605;81;21052;-72
2022/03/04 08:52:14;;;;;;;6.92;4.60;;;;;;;;;;1761860;81;21619;-73
2022/03/04 08:54:40;;;;;;;11.05;6.17;;;;;;;;;;1761860;81;21020;-71
2022/03/04 08:57:07;;;;;;;10.88;7.95;;;;;;;;;;1761656;81;21532;-73
2022/03/04 08:59:33;;;;;;;12.10;8.05;;;;;;;;;;1761915;81;21000;-72
2022/03/04 09:02:00;;;;;;;14.53;9.93;;;;;;;;;;1754924;81;21108;-71
2022/03/04 09:04:26;;;;;;;27.35;12.53;;;;;;;;;;1730233;83;21603;-71
2022/03/04 09:06:53;;;;;;;22.37;12.35;;;;;;;;;;1729918;82;21005;-70
2022/03/04 09:09:19;;;;;;;17.62;10.35;;;;;;;;;;1724585;83;21077;-70
2022/03/04 09:11:46;;;;;;;12.33;7.53;;;;;;;;;;1717623;83;21655;-70
2022/03/04 09:14:13;;;;;;;12.13;7.45;;;;;;;;;;1717959;83;21053;-70
2022/03/04 09:16:39;;;;;;;9.93;6.83;;;;;;;;;;1717266;83;21521;-70
2022/03/04 09:19:07;;;;;;;12.80;8.45;;;;;;;;;;1717440;83;21060;-71
2022/03/04 09:21:33;;;;;;;10.88;5.90;;;;;;;;;;1716794;83;20990;-71
2022/03/04 09:24:00;;;;;;;10.40;8.23;;;;;;;;;;1716741;83;21128;-71
2022/03/04 09:26:27;;;;;;;11.53;7.55;;;;;;;;;;1716434;83;20994;-72
2022/03/04 09:28:53;;;;;;;10.82;6.75;;;;;;;;;;1716700;83;21019;-73
2022/03/04 09:31:20;;;;;;;12.73;7.58;;;;;;;;;;1716685;83;21034;-72
2022/03/04 09:33:47;;;;;;;9.85;7.42;;;;;;;;;;1716740;83;21097;-72
2022/03/04 09:36:14;;;;;;;12.05;6.53;;;;;;;;;;1716593;83;21596;-72
2022/03/04 09:38:41;;;;;;;10.68;6.45;;;;;;;;;;1716749;83;21017;-73
2022/03/04 09:41:08;;;;;;;11.15;7.22;;;;;;;;;;1716609;83;21021;-72
2022/03/04 09:43:34;;;;;;;12.37;6.03;;;;;;;;;;1716601;83;21073;-72
2022/03/04 09:46:02;;;;;;;10.45;6.28;;;;;;;;;;1716699;83;21544;-73
2022/03/04 09:48:29;;;;;;;11.12;6.33;;;;;;;;;;1716482;83;21065;-71
2022/03/04 09:50:56;;;;;;;8.53;5.95;;;;;;;;;;1716700;83;21053;-71
2022/03/04 09:53:23;;;;;;;6.67;5.00;;;;;;;;;;1716728;83;21057;-71
2022/03/04 09:55:50;;;;;;;9.68;5.80;;;;;;;;;;1716481;83;21085;-72
2022/03/04 09:58:16;;;;;;;9.28;6.55;;;;;;;;;;1716812;83;21095;-72
2022/03/04 10:00:43;;;;;;;11.68;7.00;;;;;;;;;;1716883;83;21045;-72
2022/03/04 10:03:31;;;;;;;11.70;7.00;;;;;;;;;;1716657;82;21088;-73
2022/03/04 10:05:59;;;;;;;7.35;3.90;;;;;;;;;;1716783;83;22117;-72
2022/03/04 10:08:26;;;;;;;12.00;7.78;;;;;;;;;;1716449;83;21108;-72
2022/03/04 10:10:54;;;;;;;13.30;7.45;;;;;;;;;;1727927;83;21568;-72
2022/03/04 10:13:39;;;;;;;12.78;7.42;;;;;;;;;;1729686;83;21044;-72
2022/03/04 10:16:06;;;;;;;10.32;6.37;;;;;;;;;;1729763;83;21080;-72
2022/03/04 10:18:32;;;;;;;10.03;7.40;;;;;;;;;;1730088;83;21025;-69
2022/03/04 10:20:59;;;;;;;8.43;6.35;;;;;;;;;;1729706;82;21060;-72
2022/03/04 10:23:27;;;;;;;10.23;8.10;;;;;;;;;;1729685;82;21461;-72
2022/03/04 10:25:54;;;;;;;10.98;6.65;;;;;;;;;;1729771;83;21028;-73
2022/03/04 10:28:23;;;;;;;10.25;5.53;;;;;;;;;;1729712;83;20998;-72
2022/03/04 10:30:50;;;;;;;10.43;5.97;;;;;;;;;;1729709;82;21037;-73
2022/03/04 10:33:24;;;;;;;10.32;6.45;;;;;;;;;;1729720;83;21043;-73
2022/03/04 10:36:07;;;;;;;8.95;5.85;;;;;;;;;;1729478;82;21060;-72
2022/03/04 10:38:34;;;;;;;9.83;6.53;;;;;;;;;;1729875;83;21068;-72
2022/03/04 10:41:00;;;;;;;11.75;6.00;;;;;;;;;;1729515;83;21038;-72
2022/03/04 10:43:31;;;;;;;9.40;5.72;;;;;;;;;;1729496;83;21029;-73
2022/03/04 10:45:59;;;;;;;11.18;6.28;;;;;;;;;;1729376;83;21012;-72
2022/03/04 10:48:26;;;;;;;9.45;6.08;;;;;;;;;;1729501;82;21092;-72
2022/03/04 10:50:54;;;;;;;10.93;5.20;;;;;;;;;;1729624;82;21021;-73
2022/03/04 10:53:24;;;;;;;10.30;5.10;;;;;;;;;;1729594;82;21072;-72
2022/03/04 10:55:51;;;;;;;11.60;7.08;;;;;;;;;;1729772;83;21099;-72
2022/03/04 10:58:19;;;;;;;20.02;11.95;;;;;;;;;;1729670;83;21100;-72
2022/03/04 11:00:47;;;;;;;22.27;15.88;;;;;;;;;;1729425;82;21005;-73
2022/03/04 11:03:14;;;;;;;20.55;14.33;;;;;;;;;;1729240;81;21073;-72
2022/03/04 11:05:40;;;;;;;21.85;15.65;;;;;;;;;;1729641;83;21040;-73
2022/03/04 11:08:07;;;;;;;20.80;14.15;;;;;;;;;;1729730;83;21064;-72
2022/03/04 11:10:36;;;;;;;23.42;12.35;;;;;;;;;;1720863;82;21089;-72
2022/03/04 11:13:03;;;;;;;22.15;12.82;;;;;;;;;;1716699;83;21116;-72
2022/03/04 11:15:29;;;;;;;15.20;9.45;;;;;;;;;;1716649;83;21052;-72
2022/03/04 11:17:56;;;;;;;19.90;14.35;;;;;;;;;;1716502;83;21080;-72
2022/03/04 11:20:22;;;;;;;22.65;14.53;;;;;;;;;;1716616;83;21580;-72
2022/03/04 11:22:51;;;;;;;24.00;13.68;;;;;;;;;;1716644;83;21042;-73
2022/03/04 11:25:17;;;;;;;28.67;17.30;;;;;;;;;;1716791;83;21079;-72
2022/03/04 11:27:44;;;;;;;23.83;14.95;;;;;;;;;;1716904;83;21006;-73
2022/03/04 11:30:29;;;;;;;18.77;11.93;;;;;;;;;;1716847;83;21065;-72
2022/03/04 11:33:01;;;;;;;21.60;12.28;;;;;;;;;;1716435;83;21057;-72
2022/03/04 11:35:44;;;;;;;29.95;15.83;;;;;;;;;;1713672;83;21034;-71
2022/03/04 11:38:11;;;;;;;;;;;;;;;;;;1721866;83;21080;-73
2022/03/04 11:40:38;;;;;;;27.45;18.50;;;;;;;;;;1718807;83;20178;-72
2022/03/04 11:43:10;;;;;;;17.92;9.45;;;;;;;;;;1717119;83;21509;-73
2022/03/04 11:45:34;;;;;;;25.85;14.00;;;;;;;;;;1715756;83;21109;-74
2022/03/04 11:48:04;;;;;;;26.23;14.80;;;;;;;;;;1716796;83;21005;-73
2022/03/04 11:50:32;;;;;;;14.05;8.35;;;;;;;;;;1716691;83;21093;-72
2022/03/04 11:53:12;;;;;;;8.33;5.00;;;;;;;;;;1716824;83;21120;-73
2022/03/04 11:55:38;;;;;;;10.50;5.00;;;;;;;;;;1716812;83;21076;-73
2022/03/04 11:58:05;;;;;;;10.63;6.42;;;;;;;;;;1716838;83;21620;-72
2022/03/04 12:00:34;;;;;;;13.35;7.15;;;;;;;;;;1716664;83;21041;-73
2022/03/04 12:03:10;;;;;;;12.37;6.33;;;;;;;;;;1716791;82;21096;-73
2022/03/04 12:05:38;;;;;;;9.73;5.65;;;;;;;;;;1716527;83;21805;-70
2022/03/04 12:08:06;;;;;;;6.78;4.83;;;;;;;;;;1716662;83;21065;-69
2022/03/04 12:10:37;;;;;;;8.48;4.40;;;;;;;;;;1716538;83;21093;-73
2022/03/04 12:13:07;;;;;;;6.45;3.70;;;;;;;;;;1716640;83;21112;-73
2022/03/04 12:15:38;;;;;;;9.08;4.87;;;;;;;;;;1716714;83;21022;-72
2022/03/04 12:18:15;;;;;;;9.10;5.35;;;;;;;;;;1716931;83;21088;-73
2022/03/04 12:20:45;;;;;;;9.68;6.33;;;;;;;;;;1716666;83;21057;-69
2022/03/04 12:23:18;;;;;;;8.33;4.80;;;;;;;;;;1716536;83;22141;-70
2022/03/04 12:25:59;;;;;;;16.00;9.08;;;;;;;;;;1716681;83;21045;-69
2022/03/04 12:28:35;;;;;;;22.27;13.55;;;;;;;;;;1716736;83;21018;-69
2022/03/04 12:31:04;;;;;;;25.90;13.95;;;;;;;;;;1716745;83;21327;-70
2022/03/04 12:33:32;;;;;;;26.23;16.87;;;;;;;;;;1716542;83;21603;-71
2022/03/04 12:35:58;;;;;;;20.55;10.58;;;;;;;;;;1716649;83;21041;-71
2022/03/04 12:38:25;;;;;;;16.55;10.63;;;;;;;;;;1716861;83;21033;-70
2022/03/04 12:40:59;;;;;;;14.73;7.67;;;;;;;;;;1716483;83;21049;-69
2022/03/04 12:43:25;;;;;;;22.32;12.60;;;;;;;;;;1716926;83;20998;-71
2022/03/04 12:45:52;;;;;;;18.48;9.95;;;;;;;;;;1716656;83;21089;-70
2022/03/04 12:48:18;;;;;;;24.70;14.75;;;;;;;;;;1716753;83;21037;-71
2022/03/04 12:50:45;;;;;;;38.30;19.62;;;;;;;;;;1716806;83;21553;-71
2022/03/04 12:53:20;;;;;;;27.58;16.20;;;;;;;;;;1716716;83;21052;-73
2022/03/04 12:55:49;;;;;;;31.62;16.73;;;;;;;;;;1716534;83;21050;-71
2022/03/04 12:58:16;;;;;;;33.83;18.40;;;;;;;;;;1716829;83;21069;-72
2022/03/04 13:00:42;;;;;;;32.23;17.15;;;;;;;;;;1716804;83;21034;-72
2022/03/04 13:03:11;;;;;;;22.05;13.13;;;;;;;;;;1716876;82;21137;-72
2022/03/04 13:05:44;;;;;;;22.37;13.30;;;;;;;;;;1715244;83;21041;-72
2022/03/04 13:08:15;;;;;;;27.80;14.83;;;;;;;;;;1706792;83;21049;-72
2022/03/04 13:10:42;;;;;;;31.95;17.85;;;;;;;;;;1716659;83;21537;-73
2022/03/04 13:13:08;;;;;;;30.30;16.50;;;;;;;;;;1716729;83;21775;-72
2022/03/04 13:15:35;;;;;;;32.13;16.25;;;;;;;;;;1716515;83;21069;-72
2022/03/04 13:18:02;;;;;;;23.75;14.03;;;;;;;;;;1716607;83;21081;-73
2022/03/04 13:20:29;;;;;;;37.15;22.60;;;;;;;;;;1716992;83;21616;-72
2022/03/04 13:23:06;;;;;;;35.17;18.95;;;;;;;;;;1716574;83;21136;-73
2022/03/04 13:25:33;;;;;;;41.37;22.60;;;;;;;;;;1716782;83;21575;-73
2022/03/04 13:28:01;;;;;;;40.05;21.55;;;;;;;;;;1716578;83;21571;-72
2022/03/04 13:30:27;;;;;;;42.27;23.95;;;;;;;;;;1716548;83;21150;-71
2022/03/04 13:32:57;;;;;;;47.05;23.90;;;;;;;;;;1716973;83;21022;-72
2022/03/04 13:35:24;;;;;;;49.73;26.85;;;;;;;;;;1716726;83;21104;-73
2022/03/04 13:37:51;;;;;;;33.90;17.10;;;;;;;;;;1716740;83;20997;-73
2022/03/04 13:40:19;;;;;;;36.03;19.25;;;;;;;;;;1716885;83;20975;-73
2022/03/04 13:42:52;;;;;;;44.38;23.15;;;;;;;;;;1716781;83;21110;-72
2022/03/04 13:45:36;;;;;;;31.80;18.77;;;;;;;;;;1716674;83;21065;-73
2022/03/04 13:48:03;;;;;;;26.93;16.40;;;;;;;;;;1716738;83;21092;-72
2022/03/04 13:50:33;;;;;;;29.60;17.67;;;;;;;;;;1716705;83;21049;-73
2022/03/04 13:53:12;;;;;;;31.40;18.12;;;;;;;;;;1716637;83;21025;-74
2022/03/04 13:55:43;;;;;;;29.15;16.57;;;;;;;;;;1716858;83;21049;-73
2022/03/04 13:58:11;;;;;;;30.85;16.90;;;;;;;;;;1716700;83;21033;-74
2022/03/04 14:00:37;;;;;;;21.60;12.70;;;;;;;;;;1716768;83;21049;-73
2022/03/04 14:03:08;;;;;;;24.47;14.15;;;;;;;;;;1716370;82;21293;-73
2022/03/04 14:05:38;;;;;;;26.80;13.60;;;;;;;;;;1716666;83;21604;-73
2022/03/04 14:08:06;;;;;;;13.43;7.55;;;;;;;;;;1716676;83;21028;-72
2022/03/04 14:10:32;;;;;;;15.63;8.93;;;;;;;;;;1716388;83;21080;-73
2022/03/04 14:13:04;;;;;;;20.45;11.68;;;;;;;;;;1716729;83;21018;-74
2022/03/04 14:15:28;;;;;;;17.75;10.00;;;;;;;;;;1715903;83;20994;-72
2022/03/04 14:17:55;;;;;;;19.62;10.23;;;;;;;;;;1716573;83;21088;-72
2022/03/04 14:20:23;;;;;;;15.75;8.48;;;;;;;;;;1716638;83;21034;-71
2022/03/04 14:22:49;;;;;;;17.30;9.20;;;;;;;;;;1716846;83;21002;-71
2022/03/04 14:25:16;;;;;;;21.30;11.28;;;;;;;;;;1716439;83;21105;-72
2022/03/04 14:27:44;;;;;;;14.65;8.90;;;;;;;;;;1716774;83;20990;-73
2022/03/04 14:30:11;;;;;;;14.60;8.53;;;;;;;;;;1716830;83;21043;-73
2022/03/04 14:32:38;;;;;;;12.93;7.35;;;;;;;;;;1716797;83;21112;-73
2022/03/04 14:35:05;;;;;;;19.55;9.65;;;;;;;;;;1717038;83;21093;-73
2022/03/04 14:37:31;;;;;;;12.80;7.62;;;;;;;;;;1716840;83;21013;-73